Time;durP1;ratioP1;P1;durP2;ratioP2;P2;SDS_P1;SDS_P2;PMS_P1;PMS_P2;Temp;Humidity;BMP_temperature;BMP_pressure;BME280_temperature;BME280_humidity;BME280_pressure;Samples;Min_cycle;Max_cycle;Signal;HPM_P1;HPM_P2
2021/12/19 00:00:31;;;;;;;24.77;9.80;;;5.50;59.70;;;;;;6238200;28;20069;-68
2021/12/19 00:03:54;;;;;;;29.45;10.57;;;5.50;59.70;;;;;;6241091;28;20562;-68
2021/12/19 00:10:14;;;;;;;34.47;13.75;;;5.40;59.90;;;;;;6236118;28;20048;-67
2021/12/19 00:13:15;;;;;;;32.38;12.25;;;5.40;60.00;;;;;;6232731;28;20049;-67
2021/12/19 00:16:17;;;;;;;26.02;10.90;;;5.40;60.00;;;;;;6236744;28;20053;-68
2021/12/19 00:19:19;;;;;;;33.63;11.18;;;5.40;60.10;;;;;;6236404;28;20522;-67
2021/12/19 00:22:20;;;;;;;34.92;10.90;;;5.30;60.00;;;;;;6238423;28;20156;-67
2021/12/19 00:25:21;;;;;;;31.45;11.95;;;5.30;60.10;;;;;;6241494;28;20042;-67
2021/12/19 00:28:22;;;;;;;26.50;11.63;;;5.30;60.10;;;;;;6241317;28;20059;-68
2021/12/19 00:31:23;;;;;;;32.92;11.52;;;5.30;60.10;;;;;;6241325;28;20045;-68
2021/12/19 00:34:24;;;;;;;25.98;11.20;;;5.30;60.20;;;;;;6217124;28;20034;-67
2021/12/19 00:37:25;;;;;;;26.13;9.95;;;5.20;60.30;;;;;;6243360;28;20033;-68
2021/12/19 00:40:28;;;;;;;25.23;11.10;;;5.20;60.40;;;;;;6235786;28;20038;-68
2021/12/19 00:43:37;;;;;;;28.70;11.30;;;5.10;60.50;;;;;;6238391;28;20044;-67
2021/12/19 00:46:51;;;;;;;28.13;10.40;;;5.10;60.70;;;;;;6236921;28;20072;-67
2021/12/19 00:49:52;;;;;;;31.08;11.40;;;5.10;61.00;;;;;;6237070;28;20467;-67
2021/12/19 00:52:53;;;;;;;37.75;13.05;;;5.00;61.00;;;;;;6238232;28;20080;-68
2021/12/19 00:55:54;;;;;;;30.42;12.05;;;5.00;61.00;;;;;;6239701;28;20026;-68
2021/12/19 00:58:55;;;;;;;35.45;12.65;;;5.00;61.10;;;;;;6238076;28;20057;-68
2021/12/19 01:01:56;;;;;;;31.00;11.70;;;5.00;61.10;;;;;;6239560;28;20100;-68
2021/12/19 01:04:57;;;;;;;31.30;11.32;;;5.00;61.10;;;;;;6222436;28;20033;-68
2021/12/19 01:07:58;;;;;;;24.20;10.50;;;5.00;61.10;;;;;;6241419;28;20088;-69
2021/12/19 01:11:00;;;;;;;32.47;13.13;;;4.90;61.20;;;;;;6239376;28;21437;-68
2021/12/19 01:14:02;;;;;;;27.25;10.55;;;4.90;61.30;;;;;;6238245;28;20034;-67
2021/12/19 01:17:05;;;;;;;31.70;13.57;;;4.90;61.40;;;;;;6238706;28;20547;-69
2021/12/19 01:20:18;;;;;;;29.92;12.15;;;4.90;61.40;;;;;;6240694;28;20033;-68
2021/12/19 01:23:21;;;;;;;30.80;11.57;;;5.00;61.50;;;;;;6238394;28;20034;-68
2021/12/19 01:26:23;;;;;;;26.48;10.85;;;5.00;61.40;;;;;;6238622;28;20034;-69
2021/12/19 01:29:24;;;;;;;24.20;10.75;;;5.00;61.40;;;;;;6236911;28;20053;-71
2021/12/19 01:32:25;;;;;;;30.23;11.10;;;5.00;61.40;;;;;;6239228;28;20029;-68
2021/12/19 01:35:26;;;;;;;28.15;11.52;;;4.90;61.40;;;;;;6236528;28;20159;-68
2021/12/19 01:38:28;;;;;;;30.55;9.63;;;4.90;61.60;;;;;;6238048;28;20030;-68
2021/12/19 01:41:29;;;;;;;27.27;9.35;;;4.90;61.70;;;;;;6239742;28;20087;-69
2021/12/19 01:44:30;;;;;;;33.47;12.70;;;4.80;61.80;;;;;;6234852;28;20475;-67
2021/12/19 01:47:31;;;;;;;31.52;11.68;;;4.70;61.90;;;;;;6236397;28;20094;-68
2021/12/19 01:50:33;;;;;;;31.92;13.15;;;4.70;62.10;;;;;;6237715;28;20037;-68
2021/12/19 01:53:34;;;;;;;29.90;11.43;;;4.70;62.20;;;;;;6241505;28;20033;-67
2021/12/19 01:56:36;;;;;;;30.98;11.23;;;4.70;62.30;;;;;;6240039;28;20040;-69
2021/12/19 01:59:37;;;;;;;32.50;12.15;;;4.70;62.30;;;;;;6237207;28;20037;-68
2021/12/19 02:02:38;;;;;;;30.27;10.63;;;4.70;62.30;;;;;;6237981;28;20105;-69
2021/12/19 02:05:40;;;;;;;35.78;13.77;;;4.70;62.30;;;;;;6238109;28;20061;-68
2021/12/19 02:08:41;;;;;;;29.30;11.65;;;4.80;62.40;;;;;;6241104;28;20088;-68
2021/12/19 02:11:43;;;;;;;29.33;11.40;;;4.80;62.30;;;;;;6238461;28;20033;-69
2021/12/19 02:14:44;;;;;;;27.70;10.77;;;4.70;62.10;;;;;;6236603;28;20095;-68
2021/12/19 02:17:45;;;;;;;32.15;13.23;;;4.80;62.20;;;;;;6221176;28;20033;-67
2021/12/19 02:20:52;;;;;;;45.63;14.88;;;4.70;62.20;;;;;;6237587;28;20049;-68
2021/12/19 02:23:58;;;;;;;28.35;12.10;;;4.70;62.20;;;;;;6244127;28;20045;-67
2021/12/19 02:26:59;;;;;;;32.17;12.85;;;4.70;62.30;;;;;;6235588;28;20037;-68
2021/12/19 02:30:00;;;;;;;32.40;13.20;;;4.80;62.40;;;;;;6238641;28;20347;-69
2021/12/19 02:33:02;;;;;;;34.50;12.23;;;4.80;62.30;;;;;;6235721;28;20046;-67
2021/12/19 02:36:20;;;;;;;22.33;10.18;;;4.80;62.20;;;;;;6235812;28;20117;-67
2021/12/19 02:39:53;;;;;;;24.63;7.28;;;4.80;62.20;;;;;;6236809;28;20040;-68
2021/12/19 02:49:41;;;;;;;29.88;12.20;;;4.70;62.40;;;;;;6241620;28;20597;-68
2021/12/19 02:52:43;;;;;;;29.77;10.77;;;4.70;62.40;;;;;;6247096;28;20041;-68
2021/12/19 02:55:44;;;;;;;28.10;12.80;;;4.70;62.40;;;;;;6244798;28;20037;-67
2021/12/19 02:58:46;;;;;;;40.38;11.48;;;4.70;62.30;;;;;;6229730;28;20730;-68
2021/12/19 03:01:47;;;;;;;31.35;10.52;;;4.70;62.30;;;;;;6246459;28;20044;-67
2021/12/19 03:05:00;;;;;;;26.20;12.13;;;4.70;62.40;;;;;;6245810;28;20041;-68
2021/12/19 03:08:03;;;;;;;25.00;11.05;;;4.70;62.50;;;;;;6244308;28;20041;-67
2021/12/19 03:20:58;;;;;;;29.85;12.23;;;4.50;62.80;;;;;;6241521;28;20362;-68
2021/12/19 03:23:59;;;;;;;35.50;11.70;;;4.50;62.80;;;;;;6239500;28;20037;-68
2021/12/19 03:27:00;;;;;;;25.80;10.82;;;4.50;62.90;;;;;;6221930;28;20164;-67
2021/12/19 03:30:04;;;;;;;25.60;11.60;;;4.50;63.00;;;;;;6223250;28;20141;-69
2021/12/19 03:33:05;;;;;;;36.70;12.63;;;4.50;63.00;;;;;;6226029;28;20413;-67
2021/12/19 03:36:08;;;;;;;25.33;10.05;;;4.50;63.00;;;;;;6241996;28;20041;-69
2021/12/19 03:39:24;;;;;;;33.55;10.40;;;4.40;63.00;;;;;;6238970;28;20516;-67
2021/12/19 03:42:27;;;;;;;29.77;11.07;;;4.40;63.80;;;;;;6237316;28;20398;-67
2021/12/19 03:45:29;;;;;;;33.15;11.07;;;4.30;62.90;;;;;;6239725;28;20687;-69
2021/12/19 03:48:30;;;;;;;32.40;12.45;;;4.30;63.20;;;;;;6211648;28;20459;-67
2021/12/19 03:51:31;;;;;;;29.63;12.43;;;4.20;63.30;;;;;;6244318;28;20033;-69
2021/12/19 03:54:32;;;;;;;25.33;10.38;;;4.20;63.40;;;;;;6243201;28;20037;-67
2021/12/19 03:57:33;;;;;;;30.25;12.07;;;4.20;63.60;;;;;;6245469;28;20055;-68
2021/12/19 04:00:35;;;;;;;25.45;10.35;;;4.10;63.50;;;;;;6235173;28;20048;-67
2021/12/19 04:03:37;;;;;;;34.53;12.10;;;4.10;63.60;;;;;;6237545;28;20045;-67
2021/12/19 04:06:38;;;;;;;32.80;12.10;;;4.10;63.80;;;;;;6215683;28;20034;-68
2021/12/19 04:09:39;;;;;;;28.50;12.15;;;4.00;64.00;;;;;;6215911;28;20037;-67
2021/12/19 04:12:42;;;;;;;27.85;11.18;;;3.90;64.10;;;;;;6219974;28;20034;-67
2021/12/19 04:15:44;;;;;;;29.58;13.45;;;3.90;64.40;;;;;;6212091;28;20041;-67
2021/12/19 04:18:45;;;;;;;26.88;11.15;;;3.90;64.40;;;;;;6216471;28;20034;-67
2021/12/19 04:21:46;;;;;;;31.45;12.32;;;3.90;64.40;;;;;;6217376;28;20041;-67
2021/12/19 04:24:47;;;;;;;27.77;11.10;;;3.90;64.40;;;;;;6205516;28;20085;-67
2021/12/19 04:27:48;;;;;;;28.63;9.20;;;3.90;64.60;;;;;;6218858;28;20096;-66
2021/12/19 04:30:50;;;;;;;33.15;11.18;;;3.90;64.60;;;;;;6214745;28;20046;-67
2021/12/19 04:33:51;;;;;;;33.15;12.48;;;3.90;64.60;;;;;;6220562;28;20048;-67
2021/12/19 04:37:00;;;;;;;30.35;10.98;;;3.90;64.70;;;;;;6239710;28;20107;-67
2021/12/19 04:40:12;;;;;;;24.35;10.50;;;3.90;64.70;;;;;;6239762;28;20033;-67
2021/12/19 04:53:08;;;;;;;46.33;14.20;;;3.90;64.90;;;;;;6238421;28;20038;-68
2021/12/19 04:56:28;;;;;;;32.70;12.55;;;3.90;64.80;;;;;;6238376;28;20112;-68
2021/12/19 05:02:56;;;;;;;34.08;13.32;;;3.80;64.90;;;;;;6249183;28;20026;-67
2021/12/19 05:15:38;;;;;;;33.92;11.88;;;3.90;64.70;;;;;;6248159;28;20096;-68
2021/12/19 05:18:41;;;;;;;27.58;11.07;;;3.90;64.60;;;;;;6239307;28;20037;-67
2021/12/19 05:21:42;;;;;;;25.52;12.02;;;3.90;64.60;;;;;;6236257;28;20455;-67
2021/12/19 05:24:48;;;;;;;33.17;13.23;;;3.90;64.50;;;;;;6239756;28;20037;-68
2021/12/19 05:27:55;;;;;;;27.95;11.48;;;3.90;64.60;;;;;;6234053;28;20034;-68
2021/12/19 05:30:56;;;;;;;26.35;10.55;;;3.90;64.70;;;;;;6214786;28;20041;-67
2021/12/19 05:33:58;;;;;;;37.60;11.63;;;3.80;64.70;;;;;;6211974;28;20041;-67
2021/12/19 05:46:59;;;;;;;26.00;11.02;;;3.80;65.00;;;;;;6233759;28;20048;-67
2021/12/19 05:50:00;;;;;;;26.27;9.73;;;3.80;64.90;;;;;;6240416;28;20632;-68
2021/12/19 05:53:01;;;;;;;30.98;12.15;;;3.80;65.00;;;;;;6238453;28;20107;-68
2021/12/19 05:56:03;;;;;;;31.50;11.82;;;3.80;64.90;;;;;;6243551;28;20037;-68
2021/12/19 05:59:04;;;;;;;34.53;10.63;;;3.80;64.90;;;;;;6243098;28;20167;-68
2021/12/19 06:02:05;;;;;;;40.78;11.57;;;3.80;64.80;;;;;;6238262;28;20486;-68
2021/12/19 06:05:07;;;;;;;25.02;10.95;;;3.90;64.90;;;;;;6238460;28;20053;-67
2021/12/19 06:08:08;;;;;;;27.90;12.15;;;3.80;64.70;;;;;;6239862;28;20466;-68
2021/12/19 06:11:10;;;;;;;35.28;11.77;;;3.90;64.80;;;;;;6236077;28;20239;-67
2021/12/19 06:14:11;;;;;;;25.60;9.57;;;3.90;64.70;;;;;;6240321;28;20034;-68
2021/12/19 06:17:12;;;;;;;38.47;12.85;;;3.90;64.60;;;;;;6232165;28;20041;-68
2021/12/19 06:20:13;;;;;;;30.42;12.60;;;3.90;64.60;;;;;;6240499;28;20029;-68
2021/12/19 06:23:14;;;;;;;24.50;11.18;;;3.80;64.40;;;;;;6235948;28;20375;-68
2021/12/19 06:26:15;;;;;;;21.50;10.75;;;3.80;64.60;;;;;;6239137;28;20367;-68
2021/12/19 06:29:16;;;;;;;24.63;10.15;;;3.80;64.60;;;;;;6236629;28;20053;-68
2021/12/19 06:32:18;;;;;;;28.27;10.27;;;3.70;64.50;;;;;;6235550;28;20379;-68
2021/12/19 06:35:22;;;;;;;30.40;11.88;;;3.70;64.70;;;;;;6235272;28;20041;-68
2021/12/19 06:38:23;;;;;;;36.78;11.63;;;3.70;64.70;;;;;;6237378;28;20366;-68
2021/12/19 06:41:24;;;;;;;29.92;10.20;;;3.80;64.70;;;;;;6238479;28;20037;-68
2021/12/19 06:44:25;;;;;;;23.05;9.38;;;3.70;64.60;;;;;;6235434;28;20042;-68
2021/12/19 06:47:26;;;;;;;27.23;11.07;;;3.70;64.60;;;;;;6236485;28;20128;-68
2021/12/19 06:50:27;;;;;;;40.97;13.82;;;3.70;64.50;;;;;;6237247;28;20065;-67
2021/12/19 06:53:29;;;;;;;41.70;12.70;;;3.70;64.50;;;;;;6238431;28;20042;-67
2021/12/19 06:56:33;;;;;;;27.85;11.90;;;3.60;64.60;;;;;;6237926;28;20034;-67
2021/12/19 06:59:33;;;;;;;33.60;10.73;;;3.60;65.30;;;;;;6236059;28;20387;-66
2021/12/19 07:02:35;;;;;;;30.35;11.95;;;3.60;64.80;;;;;;6237862;28;20041;-67
2021/12/19 07:05:37;;;;;;;27.60;10.27;;;3.50;64.70;;;;;;6240390;28;20041;-67
2021/12/19 07:08:38;;;;;;;18.02;7.85;;;3.50;64.90;;;;;;6226886;28;20549;-67
2021/12/19 07:11:39;;;;;;;33.28;11.40;;;3.50;64.80;;;;;;6238504;28;20043;-69
2021/12/19 07:14:43;;;;;;;37.85;13.77;;;3.50;64.70;;;;;;6234049;28;20164;-67
2021/12/19 07:17:45;;;;;;;31.30;12.38;;;3.40;64.50;;;;;;6237594;28;20103;-67
2021/12/19 07:20:46;;;;;;;29.02;13.05;;;3.40;64.60;;;;;;6226393;28;20042;-67
2021/12/19 07:23:47;;;;;;;40.22;13.60;;;3.30;64.60;;;;;;6221949;28;20103;-67
2021/12/19 07:26:48;;;;;;;35.90;12.13;;;3.30;64.80;;;;;;6234419;28;20034;-67
2021/12/19 07:29:50;;;;;;;36.38;13.30;;;3.30;64.80;;;;;;6235320;28;20038;-67
2021/12/19 07:32:51;;;;;;;35.05;11.73;;;3.30;64.90;;;;;;6233971;28;20042;-67
2021/12/19 07:35:53;;;;;;;25.90;10.70;;;3.30;65.00;;;;;;6234639;28;20064;-71
2021/12/19 07:39:00;;;;;;;22.65;8.77;;;3.30;65.00;;;;;;6244975;28;20068;-69
2021/12/19 07:42:04;;;;;;;42.78;13.23;;;3.30;64.90;;;;;;6239911;28;20037;-68
2021/12/19 07:45:06;;;;;;;45.25;13.48;;;3.30;65.00;;;;;;6240509;28;20046;-68
2021/12/19 07:48:07;;;;;;;36.58;12.35;;;3.30;64.90;;;;;;6246656;28;20417;-68
2021/12/19 07:51:08;;;;;;;31.85;11.90;;;3.30;65.00;;;;;;6237949;28;20033;-68
2021/12/19 07:54:09;;;;;;;37.72;11.82;;;3.30;65.00;;;;;;6242805;28;20447;-68
2021/12/19 07:57:11;;;;;;;31.52;10.82;;;3.40;65.00;;;;;;6244082;28;20107;-70
2021/12/19 08:00:14;;;;;;;29.02;13.93;;;3.40;65.10;;;;;;6239688;28;20332;-70
2021/12/19 08:03:15;;;;;;;29.17;11.32;;;3.40;65.00;;;;;;6242317;28;20367;-69
2021/12/19 08:06:16;;;;;;;24.25;11.38;;;3.50;65.10;;;;;;6244916;28;20041;-69
2021/12/19 08:12:36;;;;;;;38.80;12.27;;;3.60;64.90;;;;;;6240308;28;20106;-67
2021/12/19 08:15:38;;;;;;;30.15;10.35;;;3.60;65.00;;;;;;6240723;28;20049;-69
2021/12/19 08:18:39;;;;;;;34.08;11.77;;;3.70;64.90;;;;;;6243890;28;20149;-69
2021/12/19 08:21:40;;;;;;;33.60;12.57;;;3.70;64.80;;;;;;6243115;28;20033;-72
2021/12/19 08:24:41;;;;;;;26.13;11.90;;;3.80;64.70;;;;;;6240794;28;20048;-67
2021/12/19 08:27:42;;;;;;;35.17;12.65;;;3.90;64.70;;;;;;6237182;28;20041;-68
2021/12/19 08:30:44;;;;;;;32.05;12.45;;;3.90;64.50;;;;;;6243639;28;20034;-67
2021/12/19 08:33:46;;;;;;;32.80;12.27;;;4.00;64.50;;;;;;6239249;28;20050;-67
2021/12/19 08:36:47;;;;;;;28.90;12.88;;;4.10;64.30;;;;;;6243587;28;20060;-69
2021/12/19 08:39:50;;;;;;;39.20;12.07;;;4.20;64.20;;;;;;6238631;28;20044;-67
2021/12/19 08:42:51;;;;;;;41.47;12.13;;;4.30;64.10;;;;;;6224823;28;20530;-69
2021/12/19 08:45:52;;;;;;;45.45;13.48;;;4.40;63.90;;;;;;6212106;28;20096;-69
2021/12/19 08:48:53;;;;;;;33.60;12.35;;;4.50;63.70;;;;;;6202010;28;20038;-68
2021/12/19 08:51:54;;;;;;;40.63;13.10;;;4.60;63.50;;;;;;6219088;28;20369;-69
2021/12/19 08:54:55;;;;;;;37.10;12.35;;;4.80;63.40;;;;;;6217863;28;20033;-69
2021/12/19 08:57:56;;;;;;;36.42;12.45;;;4.80;64.00;;;;;;6215644;28;20542;-69
2021/12/19 09:01:01;;;;;;;26.95;12.68;;;4.90;63.00;;;;;;6214228;28;20045;-67
2021/12/19 09:04:02;;;;;;;33.15;12.65;;;5.00;62.80;;;;;;6229748;28;20110;-68
2021/12/19 09:07:04;;;;;;;45.60;15.68;;;5.10;62.40;;;;;;6245222;28;20355;-67
2021/12/19 09:10:06;;;;;;;33.15;13.30;;;5.10;62.30;;;;;;6240627;28;20038;-68
2021/12/19 09:13:11;;;;;;;32.75;13.32;;;5.10;62.20;;;;;;6254873;28;20363;-67
2021/12/19 09:16:12;;;;;;;62.33;16.67;;;5.20;62.10;;;;;;6238827;28;20030;-67
2021/12/19 09:19:14;;;;;;;30.42;11.85;;;5.20;62.00;;;;;;6242725;28;20069;-67
2021/12/19 09:22:15;;;;;;;26.02;11.23;;;5.20;61.90;;;;;;6219744;28;20034;-67
2021/12/19 09:25:19;;;;;;;32.83;12.80;;;5.30;61.90;;;;;;6241498;28;20045;-67
2021/12/19 09:28:20;;;;;;;32.88;12.75;;;5.30;61.90;;;;;;6238155;28;20041;-67
2021/12/19 09:31:22;;;;;;;32.33;12.88;;;5.40;61.90;;;;;;6239239;28;20034;-68
2021/12/19 09:34:24;;;;;;;38.53;15.38;;;5.50;61.80;;;;;;6235773;28;20208;-67
2021/12/19 09:37:27;;;;;;;37.08;11.63;;;5.50;61.60;;;;;;6219857;28;20045;-66
2021/12/19 09:40:34;;;;;;;45.38;13.85;;;5.60;61.60;;;;;;6239142;28;20037;-67
2021/12/19 09:43:44;;;;;;;31.35;11.55;;;5.70;61.60;;;;;;6240915;28;20053;-68
2021/12/19 09:46:46;;;;;;;43.42;11.73;;;5.80;61.50;;;;;;6238907;28;20048;-68
2021/12/19 09:49:48;;;;;;;38.75;14.32;;;5.90;61.20;;;;;;6237415;28;20057;-69
2021/12/19 09:52:51;;;;;;;51.13;17.42;;;5.90;61.00;;;;;;6238882;28;20029;-69
2021/12/19 09:55:52;;;;;;;56.60;19.90;;;5.90;60.90;;;;;;6240488;28;20437;-68
2021/12/19 09:58:54;;;;;;;36.80;15.38;;;5.90;60.90;;;;;;6241894;28;20033;-69
2021/12/19 10:01:55;;;;;;;35.38;14.20;;;5.90;61.10;;;;;;6240735;28;20042;-68
2021/12/19 10:04:56;;;;;;;37.30;13.80;;;6.00;61.20;;;;;;6238888;28;20095;-68
2021/12/19 10:08:01;;;;;;;29.52;10.20;;;6.00;61.20;;;;;;6235731;28;20041;-67
2021/12/19 10:11:03;;;;;;;44.13;18.85;;;6.00;61.20;;;;;;6241637;28;20108;-68
2021/12/19 10:14:26;;;;;;;45.05;17.65;;;6.10;61.30;;;;;;6236444;28;20038;-68
2021/12/19 10:17:29;;;;;;;30.08;14.25;;;6.10;61.30;;;;;;6237126;28;20433;-69
2021/12/19 10:20:45;;;;;;;45.63;14.43;;;6.10;61.20;;;;;;6237474;28;20057;-68
2021/12/19 10:23:46;;;;;;;31.98;14.27;;;6.10;61.20;;;;;;6237170;28;20479;-68
2021/12/19 10:26:49;;;;;;;70.80;24.08;;;6.20;61.30;;;;;;6237264;28;20779;-68
2021/12/19 10:29:50;;;;;;;41.05;16.70;;;6.20;61.20;;;;;;6237077;28;20112;-68
2021/12/19 10:33:00;;;;;;;41.55;15.48;;;6.30;61.10;;;;;;6228826;28;20117;-70
2021/12/19 10:36:05;;;;;;;30.80;13.05;;;6.30;61.00;;;;;;6221592;28;20050;-68
2021/12/19 10:39:12;;;;;;;34.97;14.05;;;6.40;60.90;;;;;;6236778;28;20046;-69
2021/12/19 10:42:14;;;;;;;33.92;11.73;;;6.50;60.80;;;;;;6239288;28;20049;-68
2021/12/19 10:45:34;;;;;;;19.55;9.07;;;6.60;60.60;;;;;;6236914;28;20121;-67
2021/12/19 10:48:43;;;;;;;38.97;11.15;;;6.80;60.40;;;;;;6213382;28;20030;-68
2021/12/19 10:51:47;;;;;;;34.20;12.38;;;6.90;59.80;;;;;;6212967;28;20164;-67
2021/12/19 10:55:00;;;;;;;33.38;12.77;;;7.00;59.70;;;;;;6212939;28;20034;-69
2021/12/19 10:58:01;;;;;;;29.10;12.65;;;7.30;59.20;;;;;;6210644;28;20046;-66
2021/12/19 11:01:14;;;;;;;48.72;18.73;;;7.60;58.80;;;;;;6233134;28;20113;-69
2021/12/19 11:04:20;;;;;;;37.70;13.40;;;7.90;58.00;;;;;;6230506;28;20121;-69
2021/12/19 11:07:24;;;;;;;55.47;21.33;;;8.30;57.20;;;;;;6240104;28;20049;-67
2021/12/19 11:10:26;;;;;;;71.80;24.65;;;8.70;56.40;;;;;;6241231;28;20053;-68
2021/12/19 11:13:27;;;;;;;45.08;18.15;;;9.20;55.70;;;;;;6242226;28;20467;-69
2021/12/19 11:16:29;;;;;;;59.92;21.25;;;9.70;54.50;;;;;;6242411;28;20083;-68
2021/12/19 11:19:31;;;;;;;59.22;19.80;;;10.10;53.20;;;;;;6243024;28;20030;-68
2021/12/19 11:22:32;;;;;;;52.72;19.42;;;10.60;52.40;;;;;;6242123;28;20034;-68
2021/12/19 11:25:34;;;;;;;73.22;29.25;;;10.90;51.10;;;;;;6210754;28;20039;-67
2021/12/19 11:28:35;;;;;;;56.40;22.70;;;11.10;50.20;;;;;;6244672;28;20105;-68
2021/12/19 11:31:38;;;;;;;33.30;13.82;;;11.30;49.70;;;;;;6242711;28;20064;-68
2021/12/19 11:35:08;;;;;;;36.15;15.07;;;11.40;49.00;;;;;;6243972;28;20052;-67
2021/12/19 11:38:11;;;;;;;30.55;13.05;;;11.00;49.00;;;;;;6241434;28;20453;-70
2021/12/19 11:41:12;;;;;;;39.10;15.25;;;10.40;49.90;;;;;;6234587;28;20379;-67
2021/12/19 11:44:34;;;;;;;28.90;10.73;;;9.90;51.00;;;;;;6242112;28;20041;-68
2021/12/19 11:48:01;;;;;;;32.95;12.60;;;9.50;51.90;;;;;;6242283;28;20041;-67
2021/12/19 11:51:17;;;;;;;37.67;14.10;;;9.10;52.50;;;;;;6232682;28;20034;-70
2021/12/19 11:54:19;;;;;;;32.28;12.32;;;8.80;53.20;;;;;;6237928;28;20044;-74
2021/12/19 11:57:20;;;;;;;42.17;15.18;;;8.60;53.80;;;;;;6239666;28;20076;-67
2021/12/19 12:00:33;;;;;;;26.90;12.60;;;8.40;54.20;;;;;;6237098;28;20045;-68
2021/12/19 12:03:45;;;;;;;36.53;13.05;;;8.20;54.80;;;;;;6236882;28;20426;-68
2021/12/19 12:06:55;;;;;;;27.92;12.02;;;8.20;55.10;;;;;;6236956;28;20068;-68
2021/12/19 12:09:56;;;;;;;25.00;11.55;;;8.10;55.40;;;;;;6236684;28;20029;-69
2021/12/19 12:12:58;;;;;;;28.23;11.10;;;8.00;55.50;;;;;;6240719;28;20410;-69
2021/12/19 12:16:32;;;;;;;31.80;12.55;;;7.90;55.60;;;;;;6227504;28;20156;-67
2021/12/19 12:19:37;;;;;;;30.50;12.77;;;7.80;56.00;;;;;;6234388;28;20030;-68
2021/12/19 12:22:43;;;;;;;39.38;12.95;;;7.70;56.20;;;;;;6237781;28;20136;-70
2021/12/19 12:25:44;;;;;;;30.73;11.52;;;7.70;56.40;;;;;;6238961;28;20049;-69
2021/12/19 12:28:46;;;;;;;41.40;14.00;;;7.70;56.50;;;;;;6236185;28;20030;-68
2021/12/19 12:31:48;;;;;;;36.17;13.95;;;7.70;56.70;;;;;;6237972;28;20042;-69
2021/12/19 12:34:49;;;;;;;26.33;11.25;;;7.70;56.70;;;;;;6237218;28;20372;-68
2021/12/19 12:37:51;;;;;;;29.23;12.35;;;7.70;56.60;;;;;;6241462;28;20025;-68
2021/12/19 12:41:08;;;;;;;28.52;10.73;;;7.60;56.60;;;;;;6236542;28;20045;-69
2021/12/19 12:44:14;;;;;;;34.63;14.25;;;7.60;56.90;;;;;;6234948;28;20077;-69
2021/12/19 12:47:16;;;;;;;38.83;13.30;;;7.50;57.00;;;;;;6235716;28;20083;-69
2021/12/19 12:50:17;;;;;;;35.88;12.25;;;7.50;57.10;;;;;;6240402;28;20360;-69
2021/12/19 12:53:32;;;;;;;28.77;11.13;;;7.60;57.20;;;;;;6237229;28;20033;-70
2021/12/19 12:56:38;;;;;;;29.77;10.82;;;7.50;57.30;;;;;;6212020;28;20343;-69
2021/12/19 12:59:41;;;;;;;31.00;11.30;;;7.60;57.30;;;;;;6235590;28;20082;-69
2021/12/19 13:02:44;;;;;;;33.28;14.15;;;7.60;57.40;;;;;;6236870;28;20034;-69
2021/12/19 13:05:48;;;;;;;33.13;13.10;;;7.60;57.40;;;;;;6197234;28;20176;-69
2021/12/19 13:09:13;;;;;;;29.40;11.80;;;7.70;57.40;;;;;;6231779;28;20043;-69
2021/12/19 13:12:20;;;;;;;33.13;12.25;;;7.70;57.30;;;;;;6235678;28;20060;-68
2021/12/19 13:15:21;;;;;;;29.95;12.45;;;7.80;57.20;;;;;;6205007;28;20068;-68
2021/12/19 13:18:22;;;;;;;33.47;12.10;;;7.80;57.20;;;;;;6234759;28;20037;-68
2021/12/19 13:21:23;;;;;;;36.60;13.90;;;7.80;57.20;;;;;;6238052;28;20037;-68
2021/12/19 13:24:24;;;;;;;39.65;12.52;;;7.80;57.10;;;;;;6235251;28;20378;-69
2021/12/19 13:27:27;;;;;;;32.22;14.00;;;7.80;57.00;;;;;;6231497;28;20041;-69
2021/12/19 13:30:31;;;;;;;60.83;23.98;;;7.70;57.10;;;;;;6246724;28;20041;-68
2021/12/19 13:33:34;;;;;;;37.40;14.85;;;7.70;57.20;;;;;;6238490;28;20055;-68
2021/12/19 13:36:35;;;;;;;26.08;11.20;;;7.70;57.30;;;;;;6240417;28;20060;-68
2021/12/19 13:39:36;;;;;;;41.30;13.32;;;7.70;57.30;;;;;;6244955;28;20505;-69
2021/12/19 13:42:44;;;;;;;34.10;13.43;;;7.80;57.30;;;;;;6239135;28;20037;-69
2021/12/19 13:45:55;;;;;;;30.33;11.50;;;7.80;57.30;;;;;;6234708;28;20037;-69
2021/12/19 13:48:57;;;;;;;34.97;13.80;;;7.90;57.40;;;;;;6232831;28;20069;-68
2021/12/19 13:52:00;;;;;;;35.88;15.98;;;7.90;57.30;;;;;;6235554;28;20041;-70
2021/12/19 13:55:09;;;;;;;32.03;12.25;;;7.90;57.20;;;;;;6237434;28;20446;-68
2021/12/19 13:58:11;;;;;;;27.27;11.35;;;7.90;57.10;;;;;;6240468;28;20080;-67
2021/12/19 14:01:22;;;;;;;37.17;12.57;;;7.90;57.20;;;;;;6235928;28;20065;-68
2021/12/19 14:04:28;;;;;;;39.70;13.23;;;7.90;57.20;;;;;;6237241;28;20033;-68
2021/12/19 14:07:30;;;;;;;45.92;14.70;;;8.00;57.30;;;;;;6241298;28;20365;-68
2021/12/19 14:10:31;;;;;;;43.10;15.05;;;8.00;57.30;;;;;;6237963;28;20320;-69
2021/12/19 14:13:35;;;;;;;28.88;12.30;;;8.00;57.20;;;;;;6238753;28;20462;-69
2021/12/19 14:16:40;;;;;;;35.33;12.20;;;8.00;57.10;;;;;;6234281;28;20041;-68
2021/12/19 14:19:41;;;;;;;27.38;12.05;;;8.00;57.10;;;;;;6235823;28;20038;-69
2021/12/19 14:22:43;;;;;;;40.15;15.63;;;8.00;57.10;;;;;;6236693;28;20103;-68
2021/12/19 14:25:44;;;;;;;36.72;13.00;;;8.00;57.20;;;;;;6237249;28;20061;-69
2021/12/19 14:28:48;;;;;;;31.05;11.30;;;8.00;57.20;;;;;;6257367;28;20124;-69
2021/12/19 14:31:59;;;;;;;36.40;12.82;;;8.00;57.20;;;;;;6219136;28;20037;-69
2021/12/19 14:35:12;;;;;;;26.58;10.63;;;8.00;57.30;;;;;;6239296;28;20041;-69
2021/12/19 14:38:14;;;;;;;30.50;12.63;;;8.00;57.40;;;;;;6242549;28;20057;-70
2021/12/19 14:41:15;;;;;;;39.30;12.80;;;8.00;57.20;;;;;;6238246;28;20375;-72
2021/12/19 14:44:23;;;;;;;46.90;17.92;;;8.00;57.30;;;;;;6239690;28;20044;-69
2021/12/19 14:47:46;;;;;;;76.25;18.83;;;8.00;57.40;;;;;;6237315;28;20034;-70
2021/12/19 14:50:47;;;;;;;38.38;16.52;;;7.90;57.40;;;;;;6235446;28;20022;-69
2021/12/19 14:53:56;;;;;;;32.65;11.57;;;8.00;57.30;;;;;;6235676;28;20027;-68
2021/12/19 14:56:59;;;;;;;27.05;10.95;;;8.00;57.40;;;;;;6237828;28;20117;-68
2021/12/19 15:00:00;;;;;;;35.03;11.55;;;8.00;57.40;;;;;;6239271;28;20120;-69
2021/12/19 15:03:01;;;;;;;26.70;11.80;;;7.90;57.30;;;;;;6229829;28;20041;-69
2021/12/19 15:06:10;;;;;;;45.83;14.63;;;7.90;57.30;;;;;;6245772;28;20463;-69
2021/12/19 15:09:14;;;;;;;43.80;15.75;;;7.90;57.30;;;;;;6239324;28;20136;-69
2021/12/19 15:12:15;;;;;;;30.13;13.45;;;7.90;57.40;;;;;;6238505;28;20033;-68
2021/12/19 15:15:16;;;;;;;24.48;9.27;;;7.80;57.40;;;;;;6231606;28;20125;-69
2021/12/19 15:18:18;;;;;;;24.42;9.40;;;7.80;57.50;;;;;;6237694;28;20033;-68
2021/12/19 15:21:19;;;;;;;35.95;10.93;;;7.70;57.50;;;;;;6237035;28;20060;-69
2021/12/19 15:24:20;;;;;;;42.10;17.30;;;7.70;57.60;;;;;;6237325;28;20094;-68
2021/12/19 15:27:21;;;;;;;52.83;19.48;;;7.60;57.70;;;;;;6223125;28;20026;-68
2021/12/19 15:30:22;;;;;;;52.65;18.90;;;7.60;57.90;;;;;;6236269;28;20029;-69
2021/12/19 15:33:26;;;;;;;36.05;16.38;;;7.60;57.90;;;;;;6237097;28;20026;-68
2021/12/19 15:36:27;;;;;;;38.45;15.15;;;7.50;58.00;;;;;;6235169;28;20049;-69
2021/12/19 15:39:28;;;;;;;33.15;13.38;;;7.50;58.10;;;;;;6240881;28;20034;-69
2021/12/19 15:42:29;;;;;;;44.97;14.65;;;7.40;58.10;;;;;;6236532;28;20029;-68
2021/12/19 15:45:32;;;;;;;34.50;13.20;;;7.40;58.20;;;;;;6230767;28;20459;-68
2021/12/19 15:48:33;;;;;;;37.05;13.25;;;7.30;58.20;;;;;;6238539;28;20104;-69
2021/12/19 15:51:34;;;;;;;30.80;11.45;;;7.30;58.30;;;;;;6235259;28;20061;-69
2021/12/19 15:54:35;;;;;;;24.27;10.48;;;7.30;58.50;;;;;;6238385;28;20048;-68
2021/12/19 15:57:40;;;;;;;27.95;11.40;;;7.20;58.50;;;;;;6240842;28;20086;-68
2021/12/19 16:00:44;;;;;;;31.17;11.30;;;7.20;58.70;;;;;;6242116;28;20416;-68
2021/12/19 16:03:45;;;;;;;25.38;10.57;;;7.20;58.80;;;;;;6238585;28;20474;-68
2021/12/19 16:06:46;;;;;;;27.23;10.55;;;7.20;58.90;;;;;;6241117;28;20069;-68
2021/12/19 16:09:47;;;;;;;42.80;15.43;;;7.20;58.90;;;;;;6238534;28;20366;-68
2021/12/19 16:12:49;;;;;;;41.00;16.40;;;7.20;58.90;;;;;;6236671;28;20117;-68
2021/12/19 16:15:50;;;;;;;44.45;17.67;;;7.20;58.90;;;;;;6235795;28;20080;-67
2021/12/19 16:18:53;;;;;;;48.97;17.73;;;7.10;58.90;;;;;;6241389;28;20033;-68
2021/12/19 16:21:54;;;;;;;34.60;14.15;;;7.10;58.90;;;;;;6238546;28;20042;-68
2021/12/19 16:24:55;;;;;;;28.15;11.73;;;7.00;59.00;;;;;;6240632;28;20041;-68
2021/12/19 16:27:56;;;;;;;32.28;11.85;;;7.10;59.10;;;;;;6235956;28;20038;-68
2021/12/19 16:30:58;;;;;;;40.08;11.90;;;7.00;59.10;;;;;;6242247;28;20124;-67
2021/12/19 16:34:02;;;;;;;33.42;11.88;;;7.00;59.10;;;;;;6242149;28;20037;-67
2021/12/19 16:37:04;;;;;;;34.40;12.15;;;7.00;59.20;;;;;;6215100;28;20038;-68
2021/12/19 16:40:09;;;;;;;42.17;16.25;;;7.00;59.30;;;;;;6214780;28;20033;-69